LICB/CIY METAR and TAF weather

Enter ICAO airport designator
Station Type Date Time Source
LICB METAR 2018/12/18 18:50 UTC NOAA

LICB 181850Z 08004KT 040V190 CAVOK 05/02 Q1024


Station Type Date Time Source
LICB Decoded METAR 2018/12/18 18:50 UTC NOAA

Comiso As Usaf , Italy (LICB) 36-56N 014-36E
Dec 18, 2018 - 01:50 PM EST / 2018.12.18 1850 UTC
Wind: from the E (080 degrees) at 5 MPH (4 KT) (direction variable):0
Visibility: greater than 7 mile(s):0
Temperature: 41 F (5 C)
Dew Point: 35 F (2 C)
Relative Humidity: 80%
Pressure (altimeter): 30.24 in. Hg (1024 hPa)
ob: LICB 181850Z 08004KT 040V190 CAVOK 05/02 Q1024
cycle: 19

Station Type Date Time Source
LICB TAF UTC NOAA

Error!


Example: see airport list